sensor_id;sensor_type;location;lat;lon;timestamp;P1;durP1;ratioP1;P2;durP2;ratioP2
80748;SDS011;70145;53.746;9.970;2023-11-21T00:00:45;6.23;;;4.20;;
80748;SDS011;70145;53.746;9.970;2023-11-21T00:03:11;9.20;;;4.97;;
80748;SDS011;70145;53.746;9.970;2023-11-21T00:05:39;11.35;;;6.30;;
80748;SDS011;70145;53.746;9.970;2023-11-21T00:08:06;11.70;;;6.20;;
80748;SDS011;70145;53.746;9.970;2023-11-21T00:10:33;9.48;;;5.63;;
80748;SDS011;70145;53.746;9.970;2023-11-21T00:12:59;12.25;;;6.60;;
80748;SDS011;70145;53.746;9.970;2023-11-21T00:15:24;7.35;;;5.47;;
80748;SDS011;70145;53.746;9.970;2023-11-21T00:17:51;6.30;;;4.32;;
80748;SDS011;70145;53.746;9.970;2023-11-21T00:20:16;8.27;;;5.38;;
80748;SDS011;70145;53.746;9.970;2023-11-21T00:22:42;6.85;;;3.97;;
80748;SDS011;70145;53.746;9.970;2023-11-21T00:25:07;7.28;;;4.30;;
80748;SDS011;70145;53.746;9.970;2023-11-21T00:27:34;6.80;;;5.55;;
80748;SDS011;70145;53.746;9.970;2023-11-21T00:30:00;7.70;;;5.45;;
80748;SDS011;70145;53.746;9.970;2023-11-21T00:32:25;7.40;;;4.90;;
80748;SDS011;70145;53.746;9.970;2023-11-21T00:34:51;6.83;;;4.53;;
80748;SDS011;70145;53.746;9.970;2023-11-21T00:37:16;9.60;;;5.47;;
80748;SDS011;70145;53.746;9.970;2023-11-21T00:39:41;10.30;;;6.03;;
80748;SDS011;70145;53.746;9.970;2023-11-21T00:42:06;9.03;;;5.27;;
80748;SDS011;70145;53.746;9.970;2023-11-21T00:44:32;12.50;;;5.53;;
80748;SDS011;70145;53.746;9.970;2023-11-21T00:46:59;9.27;;;5.43;;
80748;SDS011;70145;53.746;9.970;2023-11-21T00:49:24;10.40;;;5.90;;
80748;SDS011;70145;53.746;9.970;2023-11-21T00:51:49;8.77;;;5.47;;
80748;SDS011;70145;53.746;9.970;2023-11-21T00:54:15;9.18;;;4.88;;
80748;SDS011;70145;53.746;9.970;2023-11-21T00:56:42;8.40;;;4.97;;
80748;SDS011;70145;53.746;9.970;2023-11-21T00:59:07;9.80;;;5.22;;
80748;SDS011;70145;53.746;9.970;2023-11-21T01:01:33;9.18;;;5.10;;
80748;SDS011;70145;53.746;9.970;2023-11-21T01:03:58;7.13;;;4.83;;
80748;SDS011;70145;53.746;9.970;2023-11-21T01:06:23;8.00;;;4.50;;
80748;SDS011;70145;53.746;9.970;2023-11-21T01:08:48;7.63;;;5.23;;
80748;SDS011;70145;53.746;9.970;2023-11-21T01:11:14;7.40;;;4.30;;
80748;SDS011;70145;53.746;9.970;2023-11-21T01:13:40;6.72;;;4.18;;
80748;SDS011;70145;53.746;9.970;2023-11-21T01:16:06;6.53;;;4.35;;
80748;SDS011;70145;53.746;9.970;2023-11-21T01:18:32;8.00;;;3.95;;
80748;SDS011;70145;53.746;9.970;2023-11-21T01:20:58;7.82;;;4.25;;
80748;SDS011;70145;53.746;9.970;2023-11-21T01:23:25;7.95;;;4.57;;
80748;SDS011;70145;53.746;9.970;2023-11-21T01:25:50;8.63;;;6.15;;
80748;SDS011;70145;53.746;9.970;2023-11-21T01:28:16;7.18;;;4.22;;
80748;SDS011;70145;53.746;9.970;2023-11-21T01:30:42;6.67;;;3.77;;
80748;SDS011;70145;53.746;9.970;2023-11-21T01:33:07;6.57;;;4.27;;
80748;SDS011;70145;53.746;9.970;2023-11-21T01:35:33;7.57;;;4.15;;
80748;SDS011;70145;53.746;9.970;2023-11-21T01:37:59;8.40;;;5.40;;
80748;SDS011;70145;53.746;9.970;2023-11-21T01:40:24;8.27;;;5.50;;
80748;SDS011;70145;53.746;9.970;2023-11-21T01:42:49;8.97;;;4.87;;
80748;SDS011;70145;53.746;9.970;2023-11-21T01:45:15;8.73;;;4.82;;
80748;SDS011;70145;53.746;9.970;2023-11-21T01:47:40;7.30;;;4.70;;
80748;SDS011;70145;53.746;9.970;2023-11-21T01:50:07;6.63;;;3.95;;
80748;SDS011;70145;53.746;9.970;2023-11-21T01:52:36;7.22;;;3.85;;
80748;SDS011;70145;53.746;9.970;2023-11-21T01:55:02;4.80;;;3.28;;
80748;SDS011;70145;53.746;9.970;2023-11-21T01:57:28;5.65;;;3.85;;
80748;SDS011;70145;53.746;9.970;2023-11-21T01:59:54;6.25;;;3.45;;
80748;SDS011;70145;53.746;9.970;2023-11-21T02:02:21;5.28;;;3.03;;
80748;SDS011;70145;53.746;9.970;2023-11-21T02:04:46;5.43;;;3.50;;
80748;SDS011;70145;53.746;9.970;2023-11-21T02:07:11;5.73;;;3.43;;
80748;SDS011;70145;53.746;9.970;2023-11-21T02:09:37;6.68;;;3.50;;
80748;SDS011;70145;53.746;9.970;2023-11-21T02:12:07;5.25;;;3.13;;
80748;SDS011;70145;53.746;9.970;2023-11-21T02:14:34;5.63;;;3.47;;
80748;SDS011;70145;53.746;9.970;2023-11-21T02:16:59;5.15;;;3.35;;
80748;SDS011;70145;53.746;9.970;2023-11-21T02:19:26;5.25;;;4.00;;
80748;SDS011;70145;53.746;9.970;2023-11-21T02:21:51;6.22;;;3.50;;
80748;SDS011;70145;53.746;9.970;2023-11-21T02:24:20;4.20;;;3.03;;
80748;SDS011;70145;53.746;9.970;2023-11-21T02:26:47;5.32;;;3.50;;
80748;SDS011;70145;53.746;9.970;2023-11-21T02:29:13;5.15;;;3.55;;
80748;SDS011;70145;53.746;9.970;2023-11-21T02:31:38;6.55;;;3.53;;
80748;SDS011;70145;53.746;9.970;2023-11-21T02:34:13;5.22;;;3.63;;
80748;SDS011;70145;53.746;9.970;2023-11-21T02:36:39;4.55;;;3.38;;
80748;SDS011;70145;53.746;9.970;2023-11-21T02:39:04;5.37;;;3.50;;
80748;SDS011;70145;53.746;9.970;2023-11-21T02:41:29;5.55;;;3.20;;
80748;SDS011;70145;53.746;9.970;2023-11-21T02:43:55;5.07;;;3.30;;
80748;SDS011;70145;53.746;9.970;2023-11-21T02:46:20;4.23;;;3.37;;
80748;SDS011;70145;53.746;9.970;2023-11-21T02:48:45;5.97;;;3.93;;
80748;SDS011;70145;53.746;9.970;2023-11-21T02:51:10;4.33;;;2.93;;
80748;SDS011;70145;53.746;9.970;2023-11-21T02:53:36;5.00;;;3.07;;
80748;SDS011;70145;53.746;9.970;2023-11-21T02:56:03;6.18;;;4.20;;
80748;SDS011;70145;53.746;9.970;2023-11-21T02:58:29;6.57;;;4.15;;
80748;SDS011;70145;53.746;9.970;2023-11-21T03:00:55;5.50;;;3.30;;
80748;SDS011;70145;53.746;9.970;2023-11-21T03:03:21;6.68;;;3.83;;
80748;SDS011;70145;53.746;9.970;2023-11-21T03:05:48;4.68;;;3.30;;
80748;SDS011;70145;53.746;9.970;2023-11-21T03:08:14;6.73;;;4.43;;
80748;SDS011;70145;53.746;9.970;2023-11-21T03:10:39;4.73;;;3.13;;
80748;SDS011;70145;53.746;9.970;2023-11-21T03:13:04;6.73;;;3.37;;
80748;SDS011;70145;53.746;9.970;2023-11-21T03:15:29;6.40;;;4.00;;
80748;SDS011;70145;53.746;9.970;2023-11-21T03:17:55;6.50;;;4.27;;
80748;SDS011;70145;53.746;9.970;2023-11-21T03:20:20;6.93;;;4.50;;
80748;SDS011;70145;53.746;9.970;2023-11-21T03:22:45;7.27;;;4.43;;
80748;SDS011;70145;53.746;9.970;2023-11-21T03:25:11;9.18;;;4.10;;
80748;SDS011;70145;53.746;9.970;2023-11-21T03:27:36;6.70;;;4.10;;
80748;SDS011;70145;53.746;9.970;2023-11-21T03:30:02;6.15;;;3.80;;
80748;SDS011;70145;53.746;9.970;2023-11-21T03:32:28;5.15;;;3.15;;
80748;SDS011;70145;53.746;9.970;2023-11-21T03:34:57;5.33;;;3.40;;
80748;SDS011;70145;53.746;9.970;2023-11-21T03:37:23;5.00;;;3.55;;
80748;SDS011;70145;53.746;9.970;2023-11-21T03:39:49;5.10;;;3.58;;
80748;SDS011;70145;53.746;9.970;2023-11-21T03:42:15;5.82;;;3.05;;
80748;SDS011;70145;53.746;9.970;2023-11-21T03:44:40;7.00;;;4.13;;
80748;SDS011;70145;53.746;9.970;2023-11-21T03:47:05;5.55;;;3.28;;
80748;SDS011;70145;53.746;9.970;2023-11-21T03:49:31;8.02;;;4.35;;
80748;SDS011;70145;53.746;9.970;2023-11-21T03:51:56;8.07;;;4.63;;
80748;SDS011;70145;53.746;9.970;2023-11-21T03:54:22;5.57;;;3.90;;
80748;SDS011;70145;53.746;9.970;2023-11-21T03:56:47;5.97;;;3.58;;
80748;SDS011;70145;53.746;9.970;2023-11-21T03:59:12;5.13;;;3.40;;
80748;SDS011;70145;53.746;9.970;2023-11-21T04:01:38;5.60;;;4.13;;
80748;SDS011;70145;53.746;9.970;2023-11-21T04:04:03;5.53;;;4.30;;
80748;SDS011;70145;53.746;9.970;2023-11-21T04:06:29;5.60;;;3.17;;
80748;SDS011;70145;53.746;9.970;2023-11-21T04:08:54;5.88;;;3.85;;
80748;SDS011;70145;53.746;9.970;2023-11-21T04:11:19;4.13;;;3.07;;
80748;SDS011;70145;53.746;9.970;2023-11-21T04:13:45;5.25;;;3.28;;
80748;SDS011;70145;53.746;9.970;2023-11-21T04:16:11;6.30;;;3.72;;
80748;SDS011;70145;53.746;9.970;2023-11-21T04:18:37;6.93;;;3.40;;
80748;SDS011;70145;53.746;9.970;2023-11-21T04:21:04;4.90;;;3.33;;
80748;SDS011;70145;53.746;9.970;2023-11-21T04:23:30;5.03;;;2.83;;
80748;SDS011;70145;53.746;9.970;2023-11-21T04:25:58;5.45;;;3.35;;
80748;SDS011;70145;53.746;9.970;2023-11-21T04:28:23;6.25;;;3.50;;
80748;SDS011;70145;53.746;9.970;2023-11-21T04:30:52;6.28;;;3.20;;
80748;SDS011;70145;53.746;9.970;2023-11-21T04:33:17;5.27;;;3.60;;
80748;SDS011;70145;53.746;9.970;2023-11-21T04:35:42;7.07;;;4.45;;
80748;SDS011;70145;53.746;9.970;2023-11-21T04:38:08;7.50;;;3.23;;
80748;SDS011;70145;53.746;9.970;2023-11-21T04:40:33;4.57;;;3.00;;
80748;SDS011;70145;53.746;9.970;2023-11-21T04:42:58;7.27;;;4.30;;
80748;SDS011;70145;53.746;9.970;2023-11-21T04:45:24;5.53;;;3.50;;
80748;SDS011;70145;53.746;9.970;2023-11-21T04:47:49;7.35;;;3.50;;
80748;SDS011;70145;53.746;9.970;2023-11-21T04:50:15;4.93;;;3.17;;
80748;SDS011;70145;53.746;9.970;2023-11-21T04:52:40;6.70;;;4.40;;
80748;SDS011;70145;53.746;9.970;2023-11-21T04:55:05;5.93;;;3.47;;
80748;SDS011;70145;53.746;9.970;2023-11-21T04:57:34;6.63;;;4.18;;
80748;SDS011;70145;53.746;9.970;2023-11-21T05:00:00;6.35;;;4.07;;
80748;SDS011;70145;53.746;9.970;2023-11-21T05:02:25;6.10;;;3.63;;
80748;SDS011;70145;53.746;9.970;2023-11-21T05:04:50;5.97;;;3.67;;
80748;SDS011;70145;53.746;9.970;2023-11-21T05:07:16;5.03;;;3.30;;
80748;SDS011;70145;53.746;9.970;2023-11-21T05:09:42;5.13;;;3.30;;
80748;SDS011;70145;53.746;9.970;2023-11-21T05:12:09;4.57;;;3.60;;
80748;SDS011;70145;53.746;9.970;2023-11-21T05:14:34;4.85;;;3.50;;
80748;SDS011;70145;53.746;9.970;2023-11-21T05:16:59;5.00;;;3.67;;
80748;SDS011;70145;53.746;9.970;2023-11-21T05:19:25;5.10;;;3.60;;
80748;SDS011;70145;53.746;9.970;2023-11-21T05:21:50;4.80;;;3.63;;
80748;SDS011;70145;53.746;9.970;2023-11-21T05:24:15;4.55;;;2.72;;
80748;SDS011;70145;53.746;9.970;2023-11-21T05:26:40;4.93;;;3.27;;
80748;SDS011;70145;53.746;9.970;2023-11-21T05:29:06;5.07;;;2.83;;
80748;SDS011;70145;53.746;9.970;2023-11-21T05:31:31;5.97;;;4.07;;
80748;SDS011;70145;53.746;9.970;2023-11-21T05:33:57;4.70;;;2.87;;
80748;SDS011;70145;53.746;9.970;2023-11-21T05:36:22;4.93;;;2.90;;
80748;SDS011;70145;53.746;9.970;2023-11-21T05:38:47;5.07;;;3.70;;
80748;SDS011;70145;53.746;9.970;2023-11-21T05:41:12;4.63;;;3.17;;
80748;SDS011;70145;53.746;9.970;2023-11-21T05:43:38;5.28;;;3.47;;
80748;SDS011;70145;53.746;9.970;2023-11-21T05:46:04;6.65;;;3.78;;
80748;SDS011;70145;53.746;9.970;2023-11-21T05:48:30;6.03;;;3.47;;
80748;SDS011;70145;53.746;9.970;2023-11-21T05:50:56;5.93;;;3.85;;
80748;SDS011;70145;53.746;9.970;2023-11-21T05:53:21;6.53;;;3.63;;
80748;SDS011;70145;53.746;9.970;2023-11-21T05:55:47;5.80;;;3.50;;
80748;SDS011;70145;53.746;9.970;2023-11-21T05:58:12;5.10;;;3.28;;
80748;SDS011;70145;53.746;9.970;2023-11-21T06:00:38;5.78;;;3.72;;
80748;SDS011;70145;53.746;9.970;2023-11-21T06:03:03;7.00;;;3.87;;
80748;SDS011;70145;53.746;9.970;2023-11-21T06:05:31;5.53;;;2.83;;
80748;SDS011;70145;53.746;9.970;2023-11-21T06:07:58;7.47;;;2.92;;
80748;SDS011;70145;53.746;9.970;2023-11-21T06:10:24;4.50;;;2.85;;
80748;SDS011;70145;53.746;9.970;2023-11-21T06:12:50;5.35;;;3.33;;
80748;SDS011;70145;53.746;9.970;2023-11-21T06:15:16;5.55;;;3.35;;
80748;SDS011;70145;53.746;9.970;2023-11-21T06:17:44;5.00;;;3.30;;
80748;SDS011;70145;53.746;9.970;2023-11-21T06:20:10;5.70;;;3.45;;
80748;SDS011;70145;53.746;9.970;2023-11-21T06:22:39;5.28;;;2.88;;
80748;SDS011;70145;53.746;9.970;2023-11-21T06:25:05;6.03;;;3.90;;
80748;SDS011;70145;53.746;9.970;2023-11-21T06:27:34;4.93;;;3.35;;
80748;SDS011;70145;53.746;9.970;2023-11-21T06:30:04;6.25;;;3.60;;
80748;SDS011;70145;53.746;9.970;2023-11-21T06:32:30;5.22;;;3.83;;
80748;SDS011;70145;53.746;9.970;2023-11-21T06:34:55;7.40;;;4.00;;
80748;SDS011;70145;53.746;9.970;2023-11-21T06:37:24;5.68;;;3.35;;
80748;SDS011;70145;53.746;9.970;2023-11-21T06:39:49;6.25;;;3.42;;
80748;SDS011;70145;53.746;9.970;2023-11-21T06:42:17;5.45;;;3.55;;
80748;SDS011;70145;53.746;9.970;2023-11-21T06:44:44;5.10;;;3.60;;
80748;SDS011;70145;53.746;9.970;2023-11-21T06:47:09;6.72;;;3.80;;
80748;SDS011;70145;53.746;9.970;2023-11-21T06:49:35;5.07;;;3.58;;
80748;SDS011;70145;53.746;9.970;2023-11-21T06:52:01;5.28;;;3.42;;
80748;SDS011;70145;53.746;9.970;2023-11-21T06:54:28;5.57;;;3.92;;
80748;SDS011;70145;53.746;9.970;2023-11-21T06:56:54;5.95;;;4.03;;
80748;SDS011;70145;53.746;9.970;2023-11-21T06:59:19;5.97;;;4.32;;
80748;SDS011;70145;53.746;9.970;2023-11-21T07:01:44;5.85;;;3.28;;
80748;SDS011;70145;53.746;9.970;2023-11-21T07:04:10;8.43;;;3.60;;
80748;SDS011;70145;53.746;9.970;2023-11-21T07:06:35;5.67;;;3.27;;
80748;SDS011;70145;53.746;9.970;2023-11-21T07:09:00;7.47;;;3.80;;
80748;SDS011;70145;53.746;9.970;2023-11-21T07:11:26;8.07;;;4.45;;
80748;SDS011;70145;53.746;9.970;2023-11-21T07:13:52;7.07;;;3.70;;
80748;SDS011;70145;53.746;9.970;2023-11-21T07:16:18;7.78;;;3.50;;
80748;SDS011;70145;53.746;9.970;2023-11-21T07:18:43;7.78;;;3.35;;
80748;SDS011;70145;53.746;9.970;2023-11-21T07:21:09;6.40;;;3.28;;
80748;SDS011;70145;53.746;9.970;2023-11-21T07:23:36;5.90;;;3.25;;
80748;SDS011;70145;53.746;9.970;2023-11-21T07:26:02;10.23;;;3.90;;
80748;SDS011;70145;53.746;9.970;2023-11-21T07:28:27;5.70;;;2.90;;
80748;SDS011;70145;53.746;9.970;2023-11-21T07:30:53;4.63;;;2.88;;
80748;SDS011;70145;53.746;9.970;2023-11-21T07:33:19;6.30;;;3.10;;
80748;SDS011;70145;53.746;9.970;2023-11-21T07:35:44;4.53;;;2.73;;
80748;SDS011;70145;53.746;9.970;2023-11-21T07:38:09;8.20;;;3.60;;
80748;SDS011;70145;53.746;9.970;2023-11-21T07:40:34;6.00;;;3.80;;
80748;SDS011;70145;53.746;9.970;2023-11-21T07:43:00;5.32;;;2.40;;
80748;SDS011;70145;53.746;9.970;2023-11-21T07:45:26;4.47;;;2.60;;
80748;SDS011;70145;53.746;9.970;2023-11-21T07:47:53;4.50;;;2.70;;
80748;SDS011;70145;53.746;9.970;2023-11-21T07:50:19;4.68;;;2.47;;
80748;SDS011;70145;53.746;9.970;2023-11-21T07:52:45;4.07;;;3.05;;
80748;SDS011;70145;53.746;9.970;2023-11-21T07:55:10;5.10;;;2.72;;
80748;SDS011;70145;53.746;9.970;2023-11-21T07:57:36;5.30;;;2.35;;
80748;SDS011;70145;53.746;9.970;2023-11-21T08:00:02;4.38;;;2.20;;
80748;SDS011;70145;53.746;9.970;2023-11-21T08:02:28;3.92;;;2.22;;
80748;SDS011;70145;53.746;9.970;2023-11-21T08:04:54;3.93;;;2.57;;
80748;SDS011;70145;53.746;9.970;2023-11-21T08:07:21;3.55;;;2.20;;
80748;SDS011;70145;53.746;9.970;2023-11-21T08:09:46;3.87;;;2.27;;
80748;SDS011;70145;53.746;9.970;2023-11-21T08:12:14;4.80;;;1.98;;
80748;SDS011;70145;53.746;9.970;2023-11-21T08:14:40;2.80;;;1.88;;
80748;SDS011;70145;53.746;9.970;2023-11-21T08:17:05;2.72;;;1.88;;
80748;SDS011;70145;53.746;9.970;2023-11-21T08:19:31;4.57;;;2.90;;
80748;SDS011;70145;53.746;9.970;2023-11-21T08:21:58;2.70;;;2.03;;
80748;SDS011;70145;53.746;9.970;2023-11-21T08:24:24;3.38;;;2.45;;
80748;SDS011;70145;53.746;9.970;2023-11-21T08:26:49;3.55;;;1.52;;
80748;SDS011;70145;53.746;9.970;2023-11-21T08:29:15;4.85;;;1.92;;
80748;SDS011;70145;53.746;9.970;2023-11-21T08:31:41;4.03;;;1.98;;
80748;SDS011;70145;53.746;9.970;2023-11-21T08:34:07;3.33;;;1.65;;
80748;SDS011;70145;53.746;9.970;2023-11-21T08:36:33;2.17;;;1.55;;
80748;SDS011;70145;53.746;9.970;2023-11-21T08:38:58;2.03;;;1.27;;
80748;SDS011;70145;53.746;9.970;2023-11-21T08:41:24;3.38;;;1.50;;
80748;SDS011;70145;53.746;9.970;2023-11-21T08:43:50;2.95;;;1.50;;
80748;SDS011;70145;53.746;9.970;2023-11-21T08:46:16;3.17;;;1.48;;
80748;SDS011;70145;53.746;9.970;2023-11-21T08:48:42;3.25;;;1.40;;
80748;SDS011;70145;53.746;9.970;2023-11-21T08:51:09;2.67;;;1.10;;
80748;SDS011;70145;53.746;9.970;2023-11-21T08:53:35;3.72;;;1.70;;
80748;SDS011;70145;53.746;9.970;2023-11-21T08:56:00;2.42;;;1.10;;
80748;SDS011;70145;53.746;9.970;2023-11-21T08:58:26;2.67;;;1.77;;
80748;SDS011;70145;53.746;9.970;2023-11-21T09:00:51;4.53;;;1.80;;
80748;SDS011;70145;53.746;9.970;2023-11-21T09:03:16;2.03;;;1.40;;
80748;SDS011;70145;53.746;9.970;2023-11-21T09:05:41;2.73;;;1.80;;
80748;SDS011;70145;53.746;9.970;2023-11-21T09:08:07;3.25;;;1.70;;
80748;SDS011;70145;53.746;9.970;2023-11-21T09:10:35;4.43;;;1.73;;
80748;SDS011;70145;53.746;9.970;2023-11-21T09:13:01;2.28;;;1.65;;
80748;SDS011;70145;53.746;9.970;2023-11-21T09:15:27;2.80;;;1.77;;
80748;SDS011;70145;53.746;9.970;2023-11-21T09:17:52;2.83;;;1.45;;
80748;SDS011;70145;53.746;9.970;2023-11-21T09:20:18;3.45;;;2.20;;
80748;SDS011;70145;53.746;9.970;2023-11-21T09:22:43;3.70;;;2.08;;
80748;SDS011;70145;53.746;9.970;2023-11-21T09:25:09;4.22;;;1.65;;
80748;SDS011;70145;53.746;9.970;2023-11-21T09:27:35;3.13;;;2.10;;
80748;SDS011;70145;53.746;9.970;2023-11-21T09:30:03;2.28;;;1.60;;
80748;SDS011;70145;53.746;9.970;2023-11-21T09:32:30;3.45;;;1.88;;
80748;SDS011;70145;53.746;9.970;2023-11-21T09:34:55;2.50;;;1.60;;
80748;SDS011;70145;53.746;9.970;2023-11-21T09:37:23;2.40;;;1.52;;
80748;SDS011;70145;53.746;9.970;2023-11-21T09:39:49;2.47;;;1.60;;
80748;SDS011;70145;53.746;9.970;2023-11-21T09:42:49;2.45;;;1.65;;
80748;SDS011;70145;53.746;9.970;2023-11-21T09:45:21;1.65;;;1.20;;
80748;SDS011;70145;53.746;9.970;2023-11-21T09:47:51;2.60;;;1.88;;
80748;SDS011;70145;53.746;9.970;2023-11-21T09:50:18;2.78;;;1.25;;
80748;SDS011;70145;53.746;9.970;2023-11-21T09:52:53;1.40;;;0.98;;
80748;SDS011;70145;53.746;9.970;2023-11-21T09:55:55;1.20;;;0.70;;
80748;SDS011;70145;53.746;9.970;2023-11-21T09:58:21;1.60;;;0.93;;
80748;SDS011;70145;53.746;9.970;2023-11-21T10:00:49;2.25;;;0.95;;
80748;SDS011;70145;53.746;9.970;2023-11-21T10:03:24;2.28;;;1.00;;
80748;SDS011;70145;53.746;9.970;2023-11-21T10:05:50;1.37;;;0.70;;
80748;SDS011;70145;53.746;9.970;2023-11-21T10:08:17;1.10;;;0.90;;
80748;SDS011;70145;53.746;9.970;2023-11-21T10:10:46;1.48;;;0.80;;
80748;SDS011;70145;53.746;9.970;2023-11-21T10:13:16;1.00;;;0.80;;
80748;SDS011;70145;53.746;9.970;2023-11-21T10:15:43;1.50;;;0.88;;
80748;SDS011;70145;53.746;9.970;2023-11-21T10:18:13;1.23;;;1.00;;
80748;SDS011;70145;53.746;9.970;2023-11-21T10:20:43;1.13;;;0.80;;
80748;SDS011;70145;53.746;9.970;2023-11-21T10:23:16;1.70;;;1.10;;
80748;SDS011;70145;53.746;9.970;2023-11-21T10:25:43;1.70;;;0.90;;
80748;SDS011;70145;53.746;9.970;2023-11-21T10:28:09;1.00;;;0.70;;
80748;SDS011;70145;53.746;9.970;2023-11-21T10:30:35;1.42;;;0.88;;
80748;SDS011;70145;53.746;9.970;2023-11-21T10:33:02;1.90;;;0.73;;
80748;SDS011;70145;53.746;9.970;2023-11-21T10:35:39;2.38;;;1.00;;
80748;SDS011;70145;53.746;9.970;2023-11-21T10:38:11;1.63;;;0.80;;
80748;SDS011;70145;53.746;9.970;2023-11-21T10:40:38;2.97;;;1.23;;
80748;SDS011;70145;53.746;9.970;2023-11-21T10:43:06;1.10;;;0.88;;
80748;SDS011;70145;53.746;9.970;2023-11-21T10:45:38;1.92;;;1.40;;
80748;SDS011;70145;53.746;9.970;2023-11-21T10:48:07;1.35;;;1.00;;
80748;SDS011;70145;53.746;9.970;2023-11-21T10:50:34;1.83;;;1.38;;
80748;SDS011;70145;53.746;9.970;2023-11-21T10:53:01;1.98;;;1.05;;
80748;SDS011;70145;53.746;9.970;2023-11-21T10:55:29;2.80;;;1.25;;
80748;SDS011;70145;53.746;9.970;2023-11-21T10:57:57;2.05;;;0.90;;
80748;SDS011;70145;53.746;9.970;2023-11-21T11:00:24;1.52;;;1.10;;
80748;SDS011;70145;53.746;9.970;2023-11-21T11:02:52;2.53;;;0.82;;
80748;SDS011;70145;53.746;9.970;2023-11-21T11:05:22;3.75;;;1.13;;
80748;SDS011;70145;53.746;9.970;2023-11-21T11:07:52;2.65;;;1.42;;
80748;SDS011;70145;53.746;9.970;2023-11-21T11:10:26;2.75;;;1.35;;
80748;SDS011;70145;53.746;9.970;2023-11-21T11:12:53;1.77;;;0.82;;
80748;SDS011;70145;53.746;9.970;2023-11-21T11:15:20;1.75;;;1.10;;
80748;SDS011;70145;53.746;9.970;2023-11-21T11:17:46;3.10;;;1.55;;
80748;SDS011;70145;53.746;9.970;2023-11-21T11:20:13;2.35;;;0.80;;
80748;SDS011;70145;53.746;9.970;2023-11-21T11:25:53;3.38;;;0.95;;
80748;SDS011;70145;53.746;9.970;2023-11-21T11:28:47;1.85;;;1.02;;
80748;SDS011;70145;53.746;9.970;2023-11-21T11:31:38;1.65;;;1.17;;
80748;SDS011;70145;53.746;9.970;2023-11-21T11:36:48;2.05;;;1.30;;
80748;SDS011;70145;53.746;9.970;2023-11-21T11:39:30;1.48;;;1.10;;
80748;SDS011;70145;53.746;9.970;2023-11-21T11:41:59;1.77;;;0.80;;
80748;SDS011;70145;53.746;9.970;2023-11-21T11:47:16;1.40;;;1.00;;
80748;SDS011;70145;53.746;9.970;2023-11-21T11:49:57;1.85;;;1.02;;
80748;SDS011;70145;53.746;9.970;2023-11-21T11:52:33;2.10;;;1.45;;
80748;SDS011;70145;53.746;9.970;2023-11-21T11:55:12;1.52;;;0.95;;
80748;SDS011;70145;53.746;9.970;2023-11-21T11:57:42;1.02;;;0.68;;
80748;SDS011;70145;53.746;9.970;2023-11-21T12:00:12;2.05;;;1.13;;
80748;SDS011;70145;53.746;9.970;2023-11-21T12:02:50;1.45;;;0.93;;
80748;SDS011;70145;53.746;9.970;2023-11-21T12:05:17;2.38;;;0.90;;
80748;SDS011;70145;53.746;9.970;2023-11-21T12:12:53;0.90;;;0.85;;
80748;SDS011;70145;53.746;9.970;2023-11-21T12:15:23;1.75;;;1.08;;
80748;SDS011;70145;53.746;9.970;2023-11-21T12:17:50;1.40;;;1.20;;
80748;SDS011;70145;53.746;9.970;2023-11-21T12:20:20;1.50;;;1.08;;
80748;SDS011;70145;53.746;9.970;2023-11-21T12:22:47;1.23;;;0.85;;
80748;SDS011;70145;53.746;9.970;2023-11-21T12:25:18;1.20;;;0.70;;
80748;SDS011;70145;53.746;9.970;2023-11-21T12:27:47;2.35;;;0.82;;
80748;SDS011;70145;53.746;9.970;2023-11-21T12:30:17;1.60;;;0.77;;
80748;SDS011;70145;53.746;9.970;2023-11-21T12:32:44;2.03;;;0.90;;
80748;SDS011;70145;53.746;9.970;2023-11-21T12:35:13;1.30;;;1.10;;
80748;SDS011;70145;53.746;9.970;2023-11-21T12:37:39;3.13;;;1.00;;
80748;SDS011;70145;53.746;9.970;2023-11-21T12:40:06;1.30;;;1.08;;
80748;SDS011;70145;53.746;9.970;2023-11-21T12:42:47;1.63;;;1.00;;
80748;SDS011;70145;53.746;9.970;2023-11-21T12:47:59;2.00;;;1.13;;
80748;SDS011;70145;53.746;9.970;2023-11-21T12:50:28;2.55;;;1.27;;
80748;SDS011;70145;53.746;9.970;2023-11-21T12:53:03;1.02;;;0.85;;
80748;SDS011;70145;53.746;9.970;2023-11-21T12:55:33;2.10;;;1.50;;
80748;SDS011;70145;53.746;9.970;2023-11-21T12:58:03;1.80;;;1.00;;
80748;SDS011;70145;53.746;9.970;2023-11-21T13:00:43;1.38;;;1.00;;
80748;SDS011;70145;53.746;9.970;2023-11-21T13:03:11;2.08;;;1.20;;
80748;SDS011;70145;53.746;9.970;2023-11-21T13:05:43;1.60;;;1.10;;
80748;SDS011;70145;53.746;9.970;2023-11-21T13:08:10;1.58;;;1.13;;
80748;SDS011;70145;53.746;9.970;2023-11-21T13:10:38;4.05;;;1.45;;
80748;SDS011;70145;53.746;9.970;2023-11-21T13:13:07;2.50;;;1.33;;
80748;SDS011;70145;53.746;9.970;2023-11-21T13:15:39;2.92;;;1.70;;
80748;SDS011;70145;53.746;9.970;2023-11-21T13:18:08;3.92;;;1.60;;
80748;SDS011;70145;53.746;9.970;2023-11-21T13:20:36;4.95;;;1.50;;
80748;SDS011;70145;53.746;9.970;2023-11-21T13:23:06;2.92;;;1.60;;
80748;SDS011;70145;53.746;9.970;2023-11-21T13:25:33;2.22;;;1.48;;
80748;SDS011;70145;53.746;9.970;2023-11-21T13:28:00;1.60;;;0.90;;
80748;SDS011;70145;53.746;9.970;2023-11-21T13:30:25;1.83;;;1.00;;
80748;SDS011;70145;53.746;9.970;2023-11-21T13:32:53;1.70;;;1.23;;
80748;SDS011;70145;53.746;9.970;2023-11-21T13:35:22;1.75;;;1.35;;
80748;SDS011;70145;53.746;9.970;2023-11-21T13:37:55;2.35;;;1.25;;
80748;SDS011;70145;53.746;9.970;2023-11-21T13:40:24;2.03;;;1.25;;
80748;SDS011;70145;53.746;9.970;2023-11-21T13:42:53;1.65;;;1.10;;
80748;SDS011;70145;53.746;9.970;2023-11-21T13:45:22;1.83;;;1.13;;
80748;SDS011;70145;53.746;9.970;2023-11-21T13:47:48;2.08;;;1.60;;
80748;SDS011;70145;53.746;9.970;2023-11-21T13:50:16;1.83;;;1.30;;
80748;SDS011;70145;53.746;9.970;2023-11-21T13:52:47;3.80;;;1.13;;
80748;SDS011;70145;53.746;9.970;2023-11-21T13:55:13;2.22;;;1.70;;
80748;SDS011;70145;53.746;9.970;2023-11-21T13:57:41;1.95;;;1.05;;
80748;SDS011;70145;53.746;9.970;2023-11-21T14:00:10;2.35;;;1.13;;
80748;SDS011;70145;53.746;9.970;2023-11-21T14:05:24;1.58;;;1.23;;
80748;SDS011;70145;53.746;9.970;2023-11-21T14:07:55;1.77;;;1.10;;
80748;SDS011;70145;53.746;9.970;2023-11-21T14:10:21;1.45;;;1.00;;
80748;SDS011;70145;53.746;9.970;2023-11-21T14:12:49;1.50;;;0.95;;
80748;SDS011;70145;53.746;9.970;2023-11-21T14:15:15;1.48;;;1.00;;
80748;SDS011;70145;53.746;9.970;2023-11-21T14:17:43;2.17;;;0.90;;
80748;SDS011;70145;53.746;9.970;2023-11-21T14:20:09;2.65;;;1.42;;
80748;SDS011;70145;53.746;9.970;2023-11-21T14:22:41;2.72;;;1.30;;
80748;SDS011;70145;53.746;9.970;2023-11-21T14:25:06;2.08;;;1.45;;
80748;SDS011;70145;53.746;9.970;2023-11-21T14:27:32;2.08;;;1.35;;
80748;SDS011;70145;53.746;9.970;2023-11-21T14:29:58;1.65;;;1.10;;
80748;SDS011;70145;53.746;9.970;2023-11-21T14:32:24;1.02;;;0.80;;
80748;SDS011;70145;53.746;9.970;2023-11-21T14:34:51;2.05;;;0.95;;
80748;SDS011;70145;53.746;9.970;2023-11-21T14:37:17;1.30;;;1.00;;
80748;SDS011;70145;53.746;9.970;2023-11-21T14:39:42;2.33;;;1.10;;
80748;SDS011;70145;53.746;9.970;2023-11-21T14:42:12;2.47;;;1.10;;
80748;SDS011;70145;53.746;9.970;2023-11-21T14:44:39;1.60;;;1.40;;
80748;SDS011;70145;53.746;9.970;2023-11-21T14:47:06;1.80;;;1.15;;
80748;SDS011;70145;53.746;9.970;2023-11-21T14:49:39;2.15;;;0.88;;
80748;SDS011;70145;53.746;9.970;2023-11-21T14:52:18;2.03;;;1.00;;
80748;SDS011;70145;53.746;9.970;2023-11-21T14:55:00;1.52;;;1.10;;
80748;SDS011;70145;53.746;9.970;2023-11-21T14:57:49;1.77;;;1.30;;
80748;SDS011;70145;53.746;9.970;2023-11-21T15:00:15;3.53;;;1.08;;
80748;SDS011;70145;53.746;9.970;2023-11-21T15:03:02;2.03;;;1.10;;
80748;SDS011;70145;53.746;9.970;2023-11-21T15:05:28;2.17;;;1.45;;
80748;SDS011;70145;53.746;9.970;2023-11-21T15:07:54;1.67;;;1.33;;